createdAt,value
2022-09-09T00:04:04.208Z,20.30
2022-09-09T00:10:23.349Z,20.20
2022-09-09T00:16:28.826Z,20.00
2022-09-09T00:22:32.640Z,19.80
2022-09-09T00:28:41.082Z,19.70
2022-09-09T00:35:05.264Z,19.50
2022-09-09T00:41:15.307Z,19.30
2022-09-09T00:47:41.840Z,19.30
2022-09-09T00:54:05.466Z,19.20
2022-09-09T01:00:23.061Z,19.20
2022-09-09T01:06:38.146Z,19.20
2022-09-09T01:12:43.459Z,19.10
2022-09-09T01:18:54.415Z,19.10
2022-09-09T01:25:28.224Z,19.10
2022-09-09T01:31:58.938Z,19.00
2022-09-09T01:38:01.856Z,19.00
2022-09-09T01:44:04.729Z,19.00
2022-09-09T01:50:13.855Z,19.10
2022-09-09T01:56:47.131Z,19.00
2022-09-09T02:02:58.512Z,19.00
2022-09-09T02:09:13.257Z,19.00
2022-09-09T02:15:35.765Z,18.80
2022-09-09T02:21:38.033Z,18.70
2022-09-09T02:27:44.327Z,18.60
2022-09-09T02:33:54.024Z,18.50
2022-09-09T02:39:57.047Z,18.50
2022-09-09T02:46:10.055Z,18.40
2022-09-09T02:52:18.922Z,18.30
2022-09-09T02:58:21.631Z,18.20
2022-09-09T03:04:40.712Z,18.20
2022-09-09T03:10:43.531Z,18.10
2022-09-09T03:16:49.611Z,18.10
2022-09-09T03:22:52.536Z,18.10
2022-09-09T03:28:55.502Z,18.10
2022-09-09T03:34:59.587Z,18.20
2022-09-09T03:41:03.445Z,18.10
2022-09-09T03:47:07.612Z,18.10
2022-09-09T03:53:10.158Z,18.00
2022-09-09T03:59:12.546Z,18.00
2022-09-09T04:05:15.851Z,18.00
2022-09-09T04:11:20.301Z,18.10
2022-09-09T04:17:25.693Z,18.20
2022-09-09T04:23:30.603Z,18.30
2022-09-09T04:29:34.905Z,18.50
2022-09-09T04:35:38.306Z,18.90
2022-09-09T04:41:40.604Z,19.30
2022-09-09T04:47:45.263Z,19.90
2022-09-09T04:53:48.850Z,23.80
2022-09-09T04:59:52.264Z,26.30
2022-09-09T05:05:54.731Z,27.90
2022-09-09T05:11:57.287Z,28.10
2022-09-09T05:18:04.780Z,28.60
2022-09-09T05:24:08.141Z,30.60
2022-09-09T05:30:11.303Z,32.20
2022-09-09T05:36:16.768Z,32.90
2022-09-09T05:42:21.507Z,33.30
2022-09-09T05:48:25.015Z,34.20
2022-09-09T05:54:27.289Z,35.20
2022-09-09T06:00:32.804Z,35.80
2022-09-09T06:06:38.074Z,36.40
2022-09-09T06:12:45.484Z,37.40
2022-09-09T06:18:50.246Z,37.50
2022-09-09T06:24:52.632Z,38.30
2022-09-09T06:31:05.829Z,37.20
2022-09-09T06:37:09.847Z,36.90
2022-09-09T06:43:17.312Z,34.70
2022-09-09T06:49:25.051Z,36.50
2022-09-09T06:55:27.207Z,37.20
2022-09-09T07:01:33.011Z,38.40
2022-09-09T07:07:38.438Z,37.60
2022-09-09T07:13:41.516Z,36.50
2022-09-09T07:19:44.609Z,37.20
2022-09-09T07:25:47.186Z,37.20
2022-09-09T07:31:51.466Z,37.00
2022-09-09T07:38:02.566Z,35.60
2022-09-09T07:44:13.215Z,35.50
2022-09-09T07:50:16.715Z,34.10
2022-09-09T07:56:20.066Z,34.80
2022-09-09T08:02:22.827Z,36.40
2022-09-09T08:08:26.147Z,38.40
2022-09-09T08:14:28.798Z,39.50
2022-09-09T08:20:32.467Z,39.90
2022-09-09T08:26:38.613Z,38.20
2022-09-09T08:32:45.582Z,37.70
2022-09-09T08:38:51.498Z,36.30
2022-09-09T08:45:02.703Z,38.00
2022-09-09T08:51:10.075Z,36.90
2022-09-09T08:57:23.918Z,35.60
2022-09-09T09:03:26.671Z,35.90
2022-09-09T09:09:53.009Z,35.50
2022-09-09T09:16:00.193Z,36.10
2022-09-09T09:22:11.420Z,36.40
2022-09-09T09:28:25.915Z,37.10
2022-09-09T09:34:32.461Z,37.00
2022-09-09T09:40:35.343Z,36.90
2022-09-09T09:46:38.696Z,37.70
2022-09-09T09:52:56.934Z,37.70
2022-09-09T09:59:00.085Z,38.10
2022-09-09T10:05:27.504Z,36.40
2022-09-09T10:11:50.351Z,34.10
2022-09-09T10:18:14.548Z,34.50
2022-09-09T10:24:37.806Z,34.00
2022-09-09T10:30:55.004Z,33.60
2022-09-09T10:36:57.745Z,33.10
2022-09-09T10:43:18.704Z,32.40
2022-09-09T10:50:17.366Z,32.30
2022-09-09T10:56:22.785Z,32.80
2022-09-09T11:02:29.071Z,33.50
2022-09-09T11:08:33.035Z,33.50
2022-09-09T11:14:47.198Z,33.30
2022-09-09T11:20:53.233Z,32.80
2022-09-09T11:27:36.814Z,33.10
2022-09-09T11:33:49.347Z,33.30
2022-09-09T11:40:23.908Z,33.30
2022-09-09T11:46:37.765Z,33.30
2022-09-09T11:52:49.839Z,33.70
2022-09-09T11:59:21.653Z,33.50
2022-09-09T12:05:24.239Z,33.70
2022-09-09T12:11:31.889Z,33.50
2022-09-09T12:17:43.623Z,33.20
2022-09-09T12:24:23.121Z,34.90
2022-09-09T12:30:33.372Z,33.70
2022-09-09T12:36:35.883Z,33.10
2022-09-09T12:42:42.091Z,32.80
2022-09-09T12:48:46.993Z,32.40
2022-09-09T12:54:49.470Z,32.30
2022-09-09T13:00:53.978Z,32.50
2022-09-09T13:07:08.177Z,32.30
2022-09-09T13:13:36.096Z,32.10
2022-09-09T13:19:40.227Z,32.00
2022-09-09T13:25:43.907Z,31.70
2022-09-09T13:31:47.351Z,31.30
2022-09-09T13:37:49.453Z,30.90
2022-09-09T13:43:52.705Z,30.60
2022-09-09T13:49:55.213Z,30.20
2022-09-09T13:55:58.622Z,30.00
2022-09-09T14:02:00.809Z,30.10
2022-09-09T14:08:05.854Z,29.80
2022-09-09T14:14:08.116Z,29.60
2022-09-09T14:20:13.163Z,29.60
2022-09-09T14:26:16.035Z,29.50
2022-09-09T14:32:18.732Z,29.50
2022-09-09T14:38:20.972Z,29.30
2022-09-09T14:44:23.882Z,29.20
2022-09-09T14:50:26.077Z,28.90
2022-09-09T14:56:30.868Z,28.70
2022-09-09T15:02:33.191Z,28.40
2022-09-09T15:08:41.707Z,28.20
2022-09-09T15:14:44.995Z,27.90
2022-09-09T15:20:47.811Z,27.60
2022-09-09T15:26:49.917Z,27.50
2022-09-09T15:32:54.238Z,27.40
2022-09-09T15:38:56.652Z,27.30
2022-09-09T15:44:58.730Z,27.20
2022-09-09T15:51:10.955Z,27.00
2022-09-09T15:57:28.098Z,26.90
2022-09-09T16:03:31.875Z,26.70
2022-09-09T16:09:36.771Z,26.60
2022-09-09T16:15:38.863Z,26.50
2022-09-09T16:21:46.509Z,26.40
2022-09-09T16:27:48.765Z,26.30
2022-09-09T16:33:52.031Z,26.20
2022-09-09T16:39:56.076Z,26.10
2022-09-09T16:45:58.623Z,26.00
2022-09-09T16:52:01.083Z,25.90
2022-09-09T16:58:03.232Z,25.90
2022-09-09T17:04:08.629Z,25.80
2022-09-09T17:10:10.724Z,25.80
2022-09-09T17:16:14.860Z,25.80
2022-09-09T17:22:17.864Z,25.70
2022-09-09T17:28:25.796Z,25.70
2022-09-09T17:34:28.182Z,25.70
2022-09-09T17:40:30.440Z,25.60
2022-09-09T17:46:36.400Z,25.60
2022-09-09T17:52:39.194Z,25.50
2022-09-09T17:58:42.237Z,25.40
2022-09-09T18:04:44.397Z,25.50
2022-09-09T18:10:55.471Z,25.40
2022-09-09T18:16:59.301Z,25.50
2022-09-09T18:23:01.386Z,25.40
2022-09-09T18:29:05.864Z,25.30
2022-09-09T18:35:08.216Z,25.30
2022-09-09T18:41:31.038Z,25.30
2022-09-09T18:47:32.995Z,25.30
2022-09-09T18:53:36.118Z,25.20
2022-09-09T18:59:38.243Z,25.10
2022-09-09T19:05:40.799Z,25.00
2022-09-09T19:11:46.278Z,25.00
2022-09-09T19:17:48.787Z,24.90
2022-09-09T19:24:03.098Z,24.80
2022-09-09T19:30:05.732Z,24.80
2022-09-09T19:36:09.590Z,24.80
2022-09-09T19:42:11.599Z,24.70
2022-09-09T19:48:14.563Z,24.70
2022-09-09T19:54:16.608Z,24.70
2022-09-09T20:00:19.530Z,24.70
2022-09-09T20:06:27.120Z,24.70
2022-09-09T20:12:29.575Z,24.60
2022-09-09T20:18:33.698Z,24.50
2022-09-09T20:24:37.251Z,24.40
2022-09-09T20:30:39.403Z,24.30
2022-09-09T20:36:42.899Z,24.10
2022-09-09T20:42:44.990Z,24.00
2022-09-09T20:48:48.153Z,24.00
2022-09-09T20:54:51.785Z,23.90
2022-09-09T21:00:56.588Z,23.90
2022-09-09T21:06:58.637Z,23.80
2022-09-09T21:13:01.739Z,23.80
2022-09-09T21:19:04.726Z,23.80
2022-09-09T21:25:07.803Z,23.80
2022-09-09T21:31:17.970Z,23.70
2022-09-09T21:37:20.357Z,23.60
2022-09-09T21:43:23.922Z,23.60
2022-09-09T21:49:26.785Z,23.60
2022-09-09T21:55:28.985Z,23.60
2022-09-09T22:01:33.710Z,23.60
2022-09-09T22:07:35.894Z,23.60
2022-09-09T22:13:38.740Z,23.60
2022-09-09T22:19:41.166Z,23.50
2022-09-09T22:25:44.756Z,23.40
2022-09-09T22:31:47.150Z,23.40
2022-09-09T22:37:49.322Z,23.30
2022-09-09T22:43:51.498Z,23.20
2022-09-09T22:49:53.498Z,23.10
2022-09-09T22:55:59.736Z,23.00
2022-09-09T23:02:01.806Z,22.80
2022-09-09T23:08:04.079Z,22.70
2022-09-09T23:14:10.107Z,22.60
2022-09-09T23:20:12.199Z,22.40
2022-09-09T23:26:20.518Z,22.30
2022-09-09T23:32:24.342Z,22.20
2022-09-09T23:38:28.661Z,22.10
2022-09-09T23:44:31.691Z,22.00
2022-09-09T23:50:33.918Z,22.00
2022-09-09T23:56:41.568Z,21.90
